sensor_id;sensor_type;location;lat;lon;timestamp;pressure;altitude;pressure_sealevel;temperature;humidity
5996;BME280;3026;53.612;7.278;2023-02-28T00:00:08;103127.31;;;5.35;100.00
5996;BME280;3026;53.612;7.278;2023-02-28T00:02:36;103113.88;;;5.33;100.00
5996;BME280;3026;53.612;7.278;2023-02-28T00:05:04;103127.13;;;5.38;100.00
5996;BME280;3026;53.612;7.278;2023-02-28T00:07:31;103124.44;;;5.38;100.00
5996;BME280;3026;53.612;7.278;2023-02-28T00:09:58;103119.97;;;5.37;100.00
5996;BME280;3026;53.612;7.278;2023-02-28T00:12:26;103121.72;;;5.38;100.00
5996;BME280;3026;53.612;7.278;2023-02-28T00:14:54;103121.72;;;5.38;100.00
5996;BME280;3026;53.612;7.278;2023-02-28T00:17:21;103116.50;;;5.35;100.00
5996;BME280;3026;53.612;7.278;2023-02-28T00:19:49;103103.91;;;5.34;100.00
5996;BME280;3026;53.612;7.278;2023-02-28T00:22:18;103114.66;;;5.35;100.00
5996;BME280;3026;53.612;7.278;2023-02-28T00:24:45;103110.19;;;5.34;100.00
5996;BME280;3026;53.612;7.278;2023-02-28T00:27:13;103110.28;;;5.33;100.00
5996;BME280;3026;53.612;7.278;2023-02-28T00:29:40;103107.59;;;5.33;100.00
5996;BME280;3026;53.612;7.278;2023-02-28T00:32:08;103113.00;;;5.33;100.00
5996;BME280;3026;53.612;7.278;2023-02-28T00:34:35;103118.41;;;5.33;100.00
5996;BME280;3026;53.612;7.278;2023-02-28T00:37:04;103109.34;;;5.34;100.00
5996;BME280;3026;53.612;7.278;2023-02-28T00:39:33;103115.63;;;5.34;100.00
5996;BME280;3026;53.612;7.278;2023-02-28T00:42:01;103102.16;;;5.33;100.00
5996;BME280;3026;53.612;7.278;2023-02-28T00:44:28;103102.31;;;5.30;100.00
5996;BME280;3026;53.612;7.278;2023-02-28T00:46:55;103104.06;;;5.31;100.00
5996;BME280;3026;53.612;7.278;2023-02-28T00:49:24;103115.69;;;5.33;100.00
5996;BME280;3026;53.612;7.278;2023-02-28T00:51:52;103109.34;;;5.34;100.00
5996;BME280;3026;53.612;7.278;2023-02-28T00:54:19;103095.81;;;5.34;100.00
5996;BME280;3026;53.612;7.278;2023-02-28T00:56:46;103093.97;;;5.34;100.00
5996;BME280;3026;53.612;7.278;2023-02-28T00:59:13;103104.63;;;5.37;100.00
5996;BME280;3026;53.612;7.278;2023-02-28T01:01:41;103104.69;;;5.36;100.00
5996;BME280;3026;53.612;7.278;2023-02-28T01:04:08;103097.38;;;5.38;100.00
5996;BME280;3026;53.612;7.278;2023-02-28T01:06:37;103092.75;;;5.40;100.00
5996;BME280;3026;53.612;7.278;2023-02-28T01:09:05;103096.22;;;5.42;100.00
5996;BME280;3026;53.612;7.278;2023-02-28T01:11:32;103103.38;;;5.43;100.00
5996;BME280;3026;53.612;7.278;2023-02-28T01:14:00;103095.13;;;5.46;100.00
5996;BME280;3026;53.612;7.278;2023-02-28T01:16:27;103094.16;;;5.47;100.00
5996;BME280;3026;53.612;7.278;2023-02-28T01:18:54;103092.25;;;5.49;100.00
5996;BME280;3026;53.612;7.278;2023-02-28T01:21:21;103097.66;;;5.49;100.00
5996;BME280;3026;53.612;7.278;2023-02-28T01:23:50;103097.47;;;5.52;100.00
5996;BME280;3026;53.612;7.278;2023-02-28T01:26:20;103097.66;;;5.49;100.00
5996;BME280;3026;53.612;7.278;2023-02-28T01:28:48;103097.47;;;5.52;100.00
5996;BME280;3026;53.612;7.278;2023-02-28T01:31:16;103101.06;;;5.52;100.00
5996;BME280;3026;53.612;7.278;2023-02-28T01:33:44;103097.47;;;5.52;100.00
5996;BME280;3026;53.612;7.278;2023-02-28T01:36:13;103094.00;;;5.50;100.00
5996;BME280;3026;53.612;7.278;2023-02-28T01:38:40;103104.63;;;5.53;100.00
5996;BME280;3026;53.612;7.278;2023-02-28T01:41:13;103090.41;;;5.49;100.00
5996;BME280;3026;53.612;7.278;2023-02-28T01:43:59;103090.31;;;5.51;100.00
5996;BME280;3026;53.612;7.278;2023-02-28T01:46:29;103075.22;;;5.47;100.00
5996;BME280;3026;53.612;7.278;2023-02-28T01:49:05;103073.31;;;5.49;100.00
5996;BME280;3026;53.612;7.278;2023-02-28T01:51:38;103081.25;;;5.52;100.00
5996;BME280;3026;53.612;7.278;2023-02-28T01:54:14;103080.38;;;5.51;100.00
5996;BME280;3026;53.612;7.278;2023-02-28T01:56:47;103088.41;;;5.53;100.00
5996;BME280;3026;53.612;7.278;2023-02-28T01:59:20;103072.25;;;5.51;100.00
5996;BME280;3026;53.612;7.278;2023-02-28T02:01:48;103076.53;;;5.55;100.00
5996;BME280;3026;53.612;7.278;2023-02-28T02:04:16;103070.22;;;5.55;100.00
5996;BME280;3026;53.612;7.278;2023-02-28T02:06:44;103063.88;;;5.56;100.00
5996;BME280;3026;53.612;7.278;2023-02-28T02:09:12;103074.78;;;5.54;100.00
5996;BME280;3026;53.612;7.278;2023-02-28T02:11:41;103072.94;;;5.55;100.00
5996;BME280;3026;53.612;7.278;2023-02-28T02:14:30;103072.16;;;5.53;100.00
5996;BME280;3026;53.612;7.278;2023-02-28T02:17:16;103063.06;;;5.54;100.00
5996;BME280;3026;53.612;7.278;2023-02-28T02:20:14;103068.34;;;5.57;100.00
5996;BME280;3026;53.612;7.278;2023-02-28T02:25:54;103076.47;;;5.57;100.00
5996;BME280;3026;53.612;7.278;2023-02-28T02:28:42;103063.94;;;5.54;100.00
5996;BME280;3026;53.612;7.278;2023-02-28T02:31:33;103073.81;;;5.55;100.00
5996;BME280;3026;53.612;7.278;2023-02-28T02:34:25;103061.00;;;5.59;100.00
5996;BME280;3026;53.612;7.278;2023-02-28T02:37:00;103075.31;;;5.61;100.00
5996;BME280;3026;53.612;7.278;2023-02-28T02:39:32;103063.63;;;5.61;100.00
5996;BME280;3026;53.612;7.278;2023-02-28T02:42:09;103070.78;;;5.62;100.00
5996;BME280;3026;53.612;7.278;2023-02-28T02:44:43;103063.63;;;5.61;100.00
5996;BME280;3026;53.612;7.278;2023-02-28T02:47:15;103073.38;;;5.63;100.00
5996;BME280;3026;53.612;7.278;2023-02-28T02:49:47;103072.44;;;5.64;100.00
5996;BME280;3026;53.612;7.278;2023-02-28T02:52:18;103070.78;;;5.62;100.00
5996;BME280;3026;53.612;7.278;2023-02-28T02:54:48;103065.19;;;5.65;100.00
5996;BME280;3026;53.612;7.278;2023-02-28T02:57:22;103066.06;;;5.65;100.00
5996;BME280;3026;53.612;7.278;2023-02-28T02:59:53;103069.53;;;5.67;100.00
5996;BME280;3026;53.612;7.278;2023-02-28T03:02:22;103072.00;;;5.72;100.00
5996;BME280;3026;53.612;7.278;2023-02-28T03:04:57;103072.88;;;5.72;100.00
5996;BME280;3026;53.612;7.278;2023-02-28T03:07:26;103074.81;;;5.70;100.00
5996;BME280;3026;53.612;7.278;2023-02-28T03:09:54;103070.44;;;5.68;100.00
5996;BME280;3026;53.612;7.278;2023-02-28T03:12:23;103080.56;;;5.64;100.00
5996;BME280;3026;53.612;7.278;2023-02-28T03:14:56;103071.84;;;5.59;100.00
5996;BME280;3026;53.612;7.278;2023-02-28T03:17:41;103059.59;;;5.52;100.00
5996;BME280;3026;53.612;7.278;2023-02-28T03:20:17;103070.59;;;5.49;100.00
5996;BME280;3026;53.612;7.278;2023-02-28T03:22:59;103068.16;;;5.44;100.00
5996;BME280;3026;53.612;7.278;2023-02-28T03:25:35;103076.34;;;5.43;100.00
5996;BME280;3026;53.612;7.278;2023-02-28T03:28:09;103067.59;;;5.38;100.00
5996;BME280;3026;53.612;7.278;2023-02-28T03:30:45;103060.63;;;5.34;100.00
5996;BME280;3026;53.612;7.278;2023-02-28T03:33:14;103069.53;;;5.36;100.00
5996;BME280;3026;53.612;7.278;2023-02-28T03:35:49;103063.34;;;5.34;100.00
5996;BME280;3026;53.612;7.278;2023-02-28T03:38:22;103071.44;;;5.34;100.00
5996;BME280;3026;53.612;7.278;2023-02-28T03:40:56;103078.94;;;5.28;100.00
5996;BME280;3026;53.612;7.278;2023-02-28T03:43:27;103077.19;;;5.27;100.00
5996;BME280;3026;53.612;7.278;2023-02-28T03:45:56;103086.44;;;5.23;100.00
5996;BME280;3026;53.612;7.278;2023-02-28T03:48:31;103083.81;;;5.22;100.00
5996;BME280;3026;53.612;7.278;2023-02-28T03:51:02;103079.59;;;5.16;100.00
5996;BME280;3026;53.612;7.278;2023-02-28T03:53:32;103081.50;;;5.14;100.00
5996;BME280;3026;53.612;7.278;2023-02-28T03:56:05;103083.44;;;5.12;100.00
5996;BME280;3026;53.612;7.278;2023-02-28T03:58:37;103078.34;;;5.06;100.00
5996;BME280;3026;53.612;7.278;2023-02-28T04:01:09;103081.03;;;5.06;100.00
5996;BME280;3026;53.612;7.278;2023-02-28T04:03:38;103078.34;;;5.06;100.00
5996;BME280;3026;53.612;7.278;2023-02-28T04:06:08;103090.03;;;5.07;100.00
5996;BME280;3026;53.612;7.278;2023-02-28T04:08:39;103082.34;;;4.99;100.00
5996;BME280;3026;53.612;7.278;2023-02-28T04:11:12;103081.63;;;4.95;100.00
5996;BME280;3026;53.612;7.278;2023-02-28T04:13:43;103079.88;;;4.94;100.00
5996;BME280;3026;53.612;7.278;2023-02-28T04:16:10;103092.59;;;4.92;100.00
5996;BME280;3026;53.612;7.278;2023-02-28T04:18:38;103090.84;;;4.91;100.00
5996;BME280;3026;53.612;7.278;2023-02-28T04:21:07;103084.56;;;4.91;100.00
5996;BME280;3026;53.612;7.278;2023-02-28T04:23:34;103096.25;;;4.91;100.00
5996;BME280;3026;53.612;7.278;2023-02-28T04:26:01;103083.78;;;4.89;100.00
5996;BME280;3026;53.612;7.278;2023-02-28T04:28:29;103081.09;;;4.89;100.00
5996;BME280;3026;53.612;7.278;2023-02-28T04:30:56;103075.81;;;4.86;100.00
5996;BME280;3026;53.612;7.278;2023-02-28T04:33:24;103083.13;;;4.84;100.00
5996;BME280;3026;53.612;7.278;2023-02-28T04:35:58;103076.94;;;4.82;100.00
5996;BME280;3026;53.612;7.278;2023-02-28T04:38:26;103084.19;;;4.81;100.00
5996;BME280;3026;53.612;7.278;2023-02-28T04:40:53;103090.63;;;4.79;100.00
5996;BME280;3026;53.612;7.278;2023-02-28T04:43:23;103088.88;;;4.78;100.00
5996;BME280;3026;53.612;7.278;2023-02-28T04:45:49;103080.88;;;4.76;100.00
5996;BME280;3026;53.612;7.278;2023-02-28T04:48:16;103081.00;;;4.73;100.00
5996;BME280;3026;53.612;7.278;2023-02-28T04:51:02;103081.88;;;4.74;100.00
5996;BME280;3026;53.612;7.278;2023-02-28T04:53:31;103092.56;;;4.77;100.00
5996;BME280;3026;53.612;7.278;2023-02-28T04:56:03;103093.41;;;4.77;100.00
5996;BME280;3026;53.612;7.278;2023-02-28T04:58:31;103090.81;;;4.76;100.00
5996;BME280;3026;53.612;7.278;2023-02-28T05:01:02;103095.25;;;4.77;100.00
5996;BME280;3026;53.612;7.278;2023-02-28T05:03:29;103086.34;;;4.75;100.00
5996;BME280;3026;53.612;7.278;2023-02-28T05:05:56;103085.44;;;4.74;100.00
5996;BME280;3026;53.612;7.278;2023-02-28T05:12:11;103108.59;;;4.80;100.00
5996;BME280;3026;53.612;7.278;2023-02-28T05:14:40;103102.06;;;4.84;100.00
5996;BME280;3026;53.612;7.278;2023-02-28T05:17:08;103103.03;;;4.83;100.00
5996;BME280;3026;53.612;7.278;2023-02-28T05:22:50;103106.47;;;4.86;100.00
5996;BME280;3026;53.612;7.278;2023-02-28T05:25:20;103105.56;;;4.86;100.00
5996;BME280;3026;53.612;7.278;2023-02-28T05:27:49;103107.38;;;4.85;100.00
5996;BME280;3026;53.612;7.278;2023-02-28T05:30:16;103101.09;;;4.85;100.00
5996;BME280;3026;53.612;7.278;2023-02-28T05:32:43;103108.25;;;4.86;100.00
5996;BME280;3026;53.612;7.278;2023-02-28T05:35:11;103106.50;;;4.85;100.00
5996;BME280;3026;53.612;7.278;2023-02-28T05:37:38;103104.78;;;4.84;100.00
5996;BME280;3026;53.612;7.278;2023-02-28T05:40:07;103110.03;;;4.87;100.00
5996;BME280;3026;53.612;7.278;2023-02-28T05:42:35;103097.44;;;4.86;100.00
5996;BME280;3026;53.612;7.278;2023-02-28T05:45:04;103111.06;;;4.84;100.00
5996;BME280;3026;53.612;7.278;2023-02-28T05:47:32;103094.91;;;4.83;100.00
5996;BME280;3026;53.612;7.278;2023-02-28T05:49:59;103100.41;;;4.81;100.00
5996;BME280;3026;53.612;7.278;2023-02-28T05:52:26;103106.94;;;4.77;100.00
5996;BME280;3026;53.612;7.278;2023-02-28T05:54:53;103114.16;;;4.77;100.00
5996;BME280;3026;53.612;7.278;2023-02-28T05:57:20;103120.44;;;4.77;100.00
5996;BME280;3026;53.612;7.278;2023-02-28T05:59:47;103116.09;;;4.75;100.00
5996;BME280;3026;53.612;7.278;2023-02-28T06:02:16;103119.56;;;4.77;100.00
5996;BME280;3026;53.612;7.278;2023-02-28T06:04:43;103117.84;;;4.76;100.00
5996;BME280;3026;53.612;7.278;2023-02-28T06:07:11;103109.06;;;4.71;100.00
5996;BME280;3026;53.612;7.278;2023-02-28T06:09:38;103125.13;;;4.74;100.00
5996;BME280;3026;53.612;7.278;2023-02-28T06:12:06;103117.84;;;4.76;100.00
5996;BME280;3026;53.612;7.278;2023-02-28T06:14:35;103123.38;;;4.73;100.00
5996;BME280;3026;53.612;7.278;2023-02-28T06:17:03;103124.31;;;4.72;100.00
5996;BME280;3026;53.612;7.278;2023-02-28T06:19:32;103119.88;;;4.71;100.00
5996;BME280;3026;53.612;7.278;2023-02-28T06:22:01;103116.38;;;4.68;100.00
5996;BME280;3026;53.612;7.278;2023-02-28T06:24:28;103117.44;;;4.66;100.00
5996;BME280;3026;53.612;7.278;2023-02-28T06:26:56;103113.94;;;4.64;100.00
5996;BME280;3026;53.612;7.278;2023-02-28T06:29:24;103116.56;;;4.65;100.00
5996;BME280;3026;53.612;7.278;2023-02-28T06:31:52;103127.38;;;4.65;100.00
5996;BME280;3026;53.612;7.278;2023-02-28T06:34:20;103124.78;;;4.62;100.00
5996;BME280;3026;53.612;7.278;2023-02-28T06:36:50;103115.97;;;4.59;100.00
5996;BME280;3026;53.612;7.278;2023-02-28T06:39:18;103114.94;;;4.61;100.00
5996;BME280;3026;53.612;7.278;2023-02-28T06:41:45;103134.03;;;4.58;100.00
5996;BME280;3026;53.612;7.278;2023-02-28T06:44:15;103133.22;;;4.56;100.00
5996;BME280;3026;53.612;7.278;2023-02-28T06:46:43;103142.28;;;4.55;100.00
5996;BME280;3026;53.612;7.278;2023-02-28T06:49:12;103144.03;;;4.56;100.00
5996;BME280;3026;53.612;7.278;2023-02-28T06:51:41;103150.25;;;4.58;100.00
5996;BME280;3026;53.612;7.278;2023-02-28T06:54:11;103150.25;;;4.58;100.00
5996;BME280;3026;53.612;7.278;2023-02-28T06:56:39;103153.66;;;4.62;100.00
5996;BME280;3026;53.612;7.278;2023-02-28T06:59:06;103152.78;;;4.61;100.00
5996;BME280;3026;53.612;7.278;2023-02-28T07:01:32;103151.78;;;4.64;100.00
5996;BME280;3026;53.612;7.278;2023-02-28T07:04:00;103165.19;;;4.65;100.00
5996;BME280;3026;53.612;7.278;2023-02-28T07:06:27;103166.00;;;4.67;100.00
5996;BME280;3026;53.612;7.278;2023-02-28T07:08:54;103159.78;;;4.65;100.00
5996;BME280;3026;53.612;7.278;2023-02-28T07:11:25;103166.00;;;4.67;100.00
5996;BME280;3026;53.612;7.278;2023-02-28T07:13:52;103165.03;;;4.68;100.00
5996;BME280;3026;53.612;7.278;2023-02-28T07:16:19;103166.78;;;4.69;100.00
5996;BME280;3026;53.612;7.278;2023-02-28T07:18:47;103165.81;;;4.71;100.00
5996;BME280;3026;53.612;7.278;2023-02-28T07:21:14;103172.03;;;4.73;100.00
5996;BME280;3026;53.612;7.278;2023-02-28T07:23:41;103173.78;;;4.74;100.00
5996;BME280;3026;53.612;7.278;2023-02-28T07:26:11;103175.56;;;4.75;100.00
5996;BME280;3026;53.612;7.278;2023-02-28T07:28:41;103173.94;;;4.71;100.00
5996;BME280;3026;53.612;7.278;2023-02-28T07:31:09;103184.44;;;4.77;100.00
5996;BME280;3026;53.612;7.278;2023-02-28T07:33:37;103182.72;;;4.76;100.00
5996;BME280;3026;53.612;7.278;2023-02-28T07:36:06;103186.38;;;4.75;100.00
5996;BME280;3026;53.612;7.278;2023-02-28T07:38:34;103185.31;;;4.77;100.00
5996;BME280;3026;53.612;7.278;2023-02-28T07:41:01;103187.16;;;4.77;100.00
5996;BME280;3026;53.612;7.278;2023-02-28T07:43:30;103189.69;;;4.80;100.00
5996;BME280;3026;53.612;7.278;2023-02-28T07:46:03;103190.41;;;4.83;100.00
5996;BME280;3026;53.612;7.278;2023-02-28T07:48:31;103197.47;;;4.86;100.00
5996;BME280;3026;53.612;7.278;2023-02-28T07:50:59;103195.59;;;4.88;100.00
5996;BME280;3026;53.612;7.278;2023-02-28T07:53:26;103189.22;;;4.89;100.00
5996;BME280;3026;53.612;7.278;2023-02-28T07:55:55;103198.13;;;4.91;100.00
5996;BME280;3026;53.612;7.278;2023-02-28T07:58:22;103199.88;;;4.92;100.00
5996;BME280;3026;53.612;7.278;2023-02-28T08:00:49;103201.47;;;4.96;100.00
5996;BME280;3026;53.612;7.278;2023-02-28T08:03:20;103191.47;;;4.98;100.00
5996;BME280;3026;53.612;7.278;2023-02-28T08:05:47;103195.59;;;5.05;100.00
5996;BME280;3026;53.612;7.278;2023-02-28T08:08:14;103193.66;;;5.07;100.00
5996;BME280;3026;53.612;7.278;2023-02-28T08:10:42;103195.28;;;5.11;100.00
5996;BME280;3026;53.612;7.278;2023-02-28T08:13:09;103202.28;;;5.15;100.00
5996;BME280;3026;53.612;7.278;2023-02-28T08:15:36;103204.66;;;5.21;100.00
5996;BME280;3026;53.612;7.278;2023-02-28T08:18:03;103201.63;;;5.27;100.00
5996;BME280;3026;53.612;7.278;2023-02-28T08:20:32;103198.44;;;5.19;100.00
5996;BME280;3026;53.612;7.278;2023-02-28T08:22:59;103204.72;;;5.20;100.00
5996;BME280;3026;53.612;7.278;2023-02-28T08:25:26;103193.38;;;5.13;100.00
5996;BME280;3026;53.612;7.278;2023-02-28T08:27:52;103197.56;;;5.19;100.00
5996;BME280;3026;53.612;7.278;2023-02-28T08:30:19;103201.09;;;5.21;100.00
5996;BME280;3026;53.612;7.278;2023-02-28T08:32:46;103204.97;;;5.33;100.00
5996;BME280;3026;53.612;7.278;2023-02-28T08:35:13;103209.47;;;5.32;100.00
5996;BME280;3026;53.612;7.278;2023-02-28T08:37:41;103206.56;;;5.37;100.00
5996;BME280;3026;53.612;7.278;2023-02-28T08:40:09;103202.41;;;5.47;100.00
5996;BME280;3026;53.612;7.278;2023-02-28T08:42:38;103197.69;;;5.50;100.00
5996;BME280;3026;53.612;7.278;2023-02-28T08:45:06;103191.88;;;5.58;100.00
5996;BME280;3026;53.612;7.278;2023-02-28T08:47:33;103198.59;;;5.67;100.00
5996;BME280;3026;53.612;7.278;2023-02-28T08:50:00;103193.56;;;5.76;100.00
5996;BME280;3026;53.612;7.278;2023-02-28T08:52:27;103200.06;;;5.90;100.00
5996;BME280;3026;53.612;7.278;2023-02-28T08:54:55;103194.34;;;5.96;100.00
5996;BME280;3026;53.612;7.278;2023-02-28T08:57:22;103196.56;;;6.05;100.00
5996;BME280;3026;53.612;7.278;2023-02-28T08:59:51;103197.34;;;6.07;100.00
5996;BME280;3026;53.612;7.278;2023-02-28T09:02:19;103198.56;;;6.17;100.00
5996;BME280;3026;53.612;7.278;2023-02-28T09:04:46;103198.06;;;6.26;100.00
5996;BME280;3026;53.612;7.278;2023-02-28T09:07:13;103191.22;;;6.35;100.00
5996;BME280;3026;53.612;7.278;2023-02-28T09:09:40;103200.13;;;6.53;100.00
5996;BME280;3026;53.612;7.278;2023-02-28T09:12:20;103183.81;;;6.84;100.00
5996;BME280;3026;53.612;7.278;2023-02-28T09:14:47;103196.28;;;7.17;100.00
5996;BME280;3026;53.612;7.278;2023-02-28T09:17:14;103188.78;;;7.36;100.00
5996;BME280;3026;53.612;7.278;2023-02-28T09:19:41;103192.69;;;7.75;100.00
5996;BME280;3026;53.612;7.278;2023-02-28T09:22:09;103195.59;;;8.00;100.00
5996;BME280;3026;53.612;7.278;2023-02-28T09:24:38;103198.47;;;8.26;100.00
5996;BME280;3026;53.612;7.278;2023-02-28T09:27:05;103200.41;;;8.65;100.00
5996;BME280;3026;53.612;7.278;2023-02-28T09:29:34;103212.16;;;8.65;100.00
5996;BME280;3026;53.612;7.278;2023-02-28T09:32:02;103205.34;;;8.72;100.00
5996;BME280;3026;53.612;7.278;2023-02-28T09:34:31;103201.59;;;8.88;100.00
5996;BME280;3026;53.612;7.278;2023-02-28T09:36:57;103210.78;;;9.12;100.00
5996;BME280;3026;53.612;7.278;2023-02-28T09:39:25;103215.91;;;9.04;100.00
5996;BME280;3026;53.612;7.278;2023-02-28T09:41:55;103215.59;;;9.21;100.00
5996;BME280;3026;53.612;7.278;2023-02-28T09:44:27;103231.97;;;9.47;100.00
5996;BME280;3026;53.612;7.278;2023-02-28T09:47:01;103213.91;;;9.71;100.00
5996;BME280;3026;53.612;7.278;2023-02-28T09:49:36;103224.13;;;9.93;100.00
5996;BME280;3026;53.612;7.278;2023-02-28T09:52:07;103216.31;;;9.63;100.00
5996;BME280;3026;53.612;7.278;2023-02-28T09:54:36;103228.28;;;9.48;100.00
5996;BME280;3026;53.612;7.278;2023-02-28T09:57:07;103226.75;;;9.44;100.00
5996;BME280;3026;53.612;7.278;2023-02-28T09:59:52;103213.91;;;9.71;100.00
5996;BME280;3026;53.612;7.278;2023-02-28T10:02:51;103215.63;;;9.72;100.00
5996;BME280;3026;53.612;7.278;2023-02-28T10:05:27;103224.91;;;9.82;100.00
5996;BME280;3026;53.612;7.278;2023-02-28T10:08:07;103227.53;;;10.09;100.00
5996;BME280;3026;53.612;7.278;2023-02-28T10:10:40;103220.69;;;10.40;100.00
5996;BME280;3026;53.612;7.278;2023-02-28T10:13:16;103223.81;;;10.60;100.00
5996;BME280;3026;53.612;7.278;2023-02-28T10:15:49;103228.44;;;10.46;100.00
5996;BME280;3026;53.612;7.278;2023-02-28T10:18:24;103237.84;;;10.30;100.00
5996;BME280;3026;53.612;7.278;2023-02-28T10:20:54;103241.16;;;9.97;100.00
5996;BME280;3026;53.612;7.278;2023-02-28T10:23:25;103233.53;;;9.76;100.00
5996;BME280;3026;53.612;7.278;2023-02-28T10:25:57;103236.13;;;9.90;100.00
5996;BME280;3026;53.612;7.278;2023-02-28T10:28:25;103243.75;;;10.36;100.00
5996;BME280;3026;53.612;7.278;2023-02-28T10:30:54;103232.47;;;10.77;100.00
5996;BME280;3026;53.612;7.278;2023-02-28T10:33:24;103231.00;;;11.08;100.00
5996;BME280;3026;53.612;7.278;2023-02-28T10:35:53;103228.63;;;11.39;100.00
5996;BME280;3026;53.612;7.278;2023-02-28T10:38:22;103235.63;;;11.65;100.00
5996;BME280;3026;53.612;7.278;2023-02-28T10:40:50;103227.41;;;11.54;100.00
5996;BME280;3026;53.612;7.278;2023-02-28T10:43:20;103223.34;;;11.60;100.00
5996;BME280;3026;53.612;7.278;2023-02-28T10:45:58;103226.97;;;11.72;100.00
5996;BME280;3026;53.612;7.278;2023-02-28T10:48:31;103221.28;;;11.86;100.00
5996;BME280;3026;53.612;7.278;2023-02-28T10:50:59;103227.63;;;11.86;100.00
5996;BME280;3026;53.612;7.278;2023-02-28T10:53:37;103225.75;;;11.98;100.00
5996;BME280;3026;53.612;7.278;2023-02-28T10:56:12;103222.75;;;11.90;100.00
5996;BME280;3026;53.612;7.278;2023-02-28T10:58:48;103230.22;;;11.88;100.00
5996;BME280;3026;53.612;7.278;2023-02-28T11:01:17;103224.50;;;11.91;100.00
5996;BME280;3026;53.612;7.278;2023-02-28T11:03:46;103227.50;;;11.99;100.00
5996;BME280;3026;53.612;7.278;2023-02-28T11:06:17;103226.50;;;11.89;100.00
5996;BME280;3026;53.612;7.278;2023-02-28T11:08:50;103230.88;;;11.56;100.00
5996;BME280;3026;53.612;7.278;2023-02-28T11:11:19;103224.66;;;11.43;100.00
5996;BME280;3026;53.612;7.278;2023-02-28T11:13:47;103224.25;;;11.25;100.00
5996;BME280;3026;53.612;7.278;2023-02-28T11:16:16;103224.53;;;11.09;100.00
5996;BME280;3026;53.612;7.278;2023-02-28T11:18:48;103221.94;;;10.84;100.00
5996;BME280;3026;53.612;7.278;2023-02-28T11:21:20;103227.03;;;10.65;100.00
5996;BME280;3026;53.612;7.278;2023-02-28T11:23:50;103223.84;;;10.47;100.00
5996;BME280;3026;53.612;7.278;2023-02-28T11:26:36;103217.13;;;10.27;100.00
5996;BME280;3026;53.612;7.278;2023-02-28T11:29:10;103212.91;;;10.23;100.00
5996;BME280;3026;53.612;7.278;2023-02-28T11:31:37;103213.66;;;10.25;100.00
5996;BME280;3026;53.612;7.278;2023-02-28T11:34:23;103211.31;;;10.44;100.00
5996;BME280;3026;53.612;7.278;2023-02-28T11:36:54;103204.06;;;10.80;100.00
5996;BME280;3026;53.612;7.278;2023-02-28T11:39:22;103220.50;;;10.91;100.00
5996;BME280;3026;53.612;7.278;2023-02-28T11:42:11;103209.47;;;11.28;100.00
5996;BME280;3026;53.612;7.278;2023-02-28T11:44:53;103206.78;;;11.39;100.00
5996;BME280;3026;53.612;7.278;2023-02-28T11:47:30;103200.63;;;11.13;100.00
5996;BME280;3026;53.612;7.278;2023-02-28T11:50:16;103198.72;;;11.02;100.00
5996;BME280;3026;53.612;7.278;2023-02-28T11:53:10;103202.50;;;11.24;100.00
5996;BME280;3026;53.612;7.278;2023-02-28T11:57:01;103202.63;;;11.33;100.00
5996;BME280;3026;53.612;7.278;2023-02-28T11:59:48;103201.56;;;11.36;100.00
5996;BME280;3026;53.612;7.278;2023-02-28T12:02:24;103199.63;;;11.14;100.00
5996;BME280;3026;53.612;7.278;2023-02-28T12:04:58;103187.78;;;11.02;100.00
5996;BME280;3026;53.612;7.278;2023-02-28T12:07:38;103195.78;;;10.81;100.00
5996;BME280;3026;53.612;7.278;2023-02-28T12:10:18;103191.63;;;10.76;100.00
5996;BME280;3026;53.612;7.278;2023-02-28T12:12:53;103186.91;;;10.67;100.00
5996;BME280;3026;53.612;7.278;2023-02-28T12:15:39;103176.38;;;10.49;100.00
5996;BME280;3026;53.612;7.278;2023-02-28T12:18:19;103182.00;;;10.35;100.00
5996;BME280;3026;53.612;7.278;2023-02-28T12:20:54;103187.03;;;10.16;100.00
5996;BME280;3026;53.612;7.278;2023-02-28T12:24:01;103184.91;;;9.96;100.00
5996;BME280;3026;53.612;7.278;2023-02-28T12:26:37;103178.16;;;9.88;100.00
5996;BME280;3026;53.612;7.278;2023-02-28T12:29:12;103162.69;;;9.76;100.00
5996;BME280;3026;53.612;7.278;2023-02-28T12:31:46;103180.69;;;9.66;100.00
5996;BME280;3026;53.612;7.278;2023-02-28T12:34:17;103166.19;;;9.53;100.00
5996;BME280;3026;53.612;7.278;2023-02-28T12:36:47;103156.69;;;9.46;100.00
5996;BME280;3026;53.612;7.278;2023-02-28T12:39:21;103158.88;;;9.66;100.00
5996;BME280;3026;53.612;7.278;2023-02-28T12:41:53;103158.50;;;10.09;100.00
5996;BME280;3026;53.612;7.278;2023-02-28T12:44:25;103151.47;;;10.17;100.00
5996;BME280;3026;53.612;7.278;2023-02-28T12:46:55;103156.91;;;10.17;100.00
5996;BME280;3026;53.612;7.278;2023-02-28T12:49:29;103147.34;;;10.48;100.00
5996;BME280;3026;53.612;7.278;2023-02-28T12:51:57;103149.50;;;10.80;100.00
5996;BME280;3026;53.612;7.278;2023-02-28T12:54:31;103136.91;;;11.01;100.00
5996;BME280;3026;53.612;7.278;2023-02-28T12:57:05;103136.72;;;11.27;100.00
5996;BME280;3026;53.612;7.278;2023-02-28T12:59:38;103136.22;;;11.33;100.00
5996;BME280;3026;53.612;7.278;2023-02-28T13:02:40;103133.00;;;11.28;100.00
5996;BME280;3026;53.612;7.278;2023-02-28T13:05:28;103133.78;;;11.63;100.00
5996;BME280;3026;53.612;7.278;2023-02-28T13:08:07;103138.75;;;11.92;100.00
5996;BME280;3026;53.612;7.278;2023-02-28T13:10:42;103133.50;;;12.11;100.00
5996;BME280;3026;53.612;7.278;2023-02-28T13:13:15;103138.75;;;11.81;100.00
5996;BME280;3026;53.612;7.278;2023-02-28T13:16:01;103130.91;;;11.65;100.00
5996;BME280;3026;53.612;7.278;2023-02-28T13:18:34;103128.78;;;11.57;100.00
5996;BME280;3026;53.612;7.278;2023-02-28T13:21:04;103131.75;;;11.43;100.00
5996;BME280;3026;53.612;7.278;2023-02-28T13:23:59;103124.53;;;11.20;100.00
5996;BME280;3026;53.612;7.278;2023-02-28T13:29:36;103131.78;;;10.62;100.00
5996;BME280;3026;53.612;7.278;2023-02-28T13:32:34;103131.41;;;10.31;100.00
5996;BME280;3026;53.612;7.278;2023-02-28T13:44:22;103134.78;;;9.60;100.00
5996;BME280;3026;53.612;7.278;2023-02-28T13:47:27;103131.00;;;9.50;100.00
5996;BME280;3026;53.612;7.278;2023-02-28T13:50:14;103118.47;;;9.34;100.00
5996;BME280;3026;53.612;7.278;2023-02-28T13:52:47;103126.75;;;9.46;100.00